createdAt,value
2019-02-04T00:00:35.290Z,0.70
2019-02-04T00:01:39.549Z,0.70
2019-02-04T00:02:43.268Z,0.70
2019-02-04T00:03:47.002Z,0.70
2019-02-04T00:04:50.608Z,0.80
2019-02-04T00:05:54.449Z,0.80
2019-02-04T00:06:58.032Z,0.80
2019-02-04T00:08:01.639Z,0.80
2019-02-04T00:09:07.003Z,0.80
2019-02-04T00:10:12.235Z,0.80
2019-02-04T00:11:15.855Z,0.70
2019-02-04T00:12:19.462Z,0.70
2019-02-04T00:13:23.122Z,0.70
2019-02-04T00:14:26.711Z,0.60
2019-02-04T00:15:30.453Z,0.60
2019-02-04T00:16:40.559Z,0.50
2019-02-04T00:17:39.404Z,0.40
2019-02-04T00:18:43.031Z,0.40
2019-02-04T00:19:46.631Z,0.40
2019-02-04T00:20:50.371Z,0.40
2019-02-04T00:21:54.363Z,0.30
2019-02-04T00:22:57.985Z,0.30
2019-02-04T00:24:01.602Z,0.30
2019-02-04T00:25:06.087Z,0.20
2019-02-04T00:26:09.687Z,0.20
2019-02-04T00:27:13.293Z,0.30
2019-02-04T00:28:16.932Z,0.20
2019-02-04T00:29:20.566Z,0.20
2019-02-04T00:30:25.851Z,0.20
2019-02-04T00:31:29.415Z,0.30
2019-02-04T00:32:33.122Z,0.30
2019-02-04T00:33:36.733Z,0.40
2019-02-04T00:34:40.342Z,0.40
2019-02-04T00:35:43.973Z,0.50
2019-02-04T00:36:47.766Z,0.50
2019-02-04T00:37:51.445Z,0.50
2019-02-04T00:38:55.045Z,0.50
2019-02-04T00:39:58.663Z,0.50
2019-02-04T00:41:02.313Z,0.50
2019-02-04T00:42:05.912Z,0.50
2019-02-04T00:43:09.656Z,0.50
2019-02-04T00:44:13.238Z,0.50
2019-02-04T00:45:16.878Z,0.50
2019-02-04T00:46:20.459Z,0.60
2019-02-04T00:47:24.068Z,0.60
2019-02-04T00:48:27.752Z,0.70
2019-02-04T00:49:31.379Z,0.70
2019-02-04T00:50:35.328Z,0.70
2019-02-04T00:51:39.126Z,0.70
2019-02-04T00:52:42.706Z,0.70
2019-02-04T00:53:46.299Z,0.70
2019-02-04T00:54:49.957Z,0.70
2019-02-04T00:55:53.663Z,0.70
2019-02-04T00:56:57.314Z,0.80
2019-02-04T00:58:00.921Z,0.70
2019-02-04T00:59:05.254Z,0.70
2019-02-04T01:00:18.092Z,0.70
2019-02-04T01:01:21.718Z,0.60
2019-02-04T01:02:25.406Z,0.60
2019-02-04T01:03:28.992Z,0.60
2019-02-04T01:04:32.655Z,0.60
2019-02-04T01:05:36.311Z,0.60
2019-02-04T01:06:39.984Z,0.50
2019-02-04T01:07:43.833Z,0.50
2019-02-04T01:08:48.359Z,0.50
2019-02-04T01:09:51.986Z,0.50
2019-02-04T01:10:55.745Z,0.50
2019-02-04T01:11:59.339Z,0.40
2019-02-04T01:13:03.006Z,0.40
2019-02-04T01:14:06.610Z,0.40
2019-02-04T01:15:10.339Z,0.50
2019-02-04T01:16:14.011Z,0.50
2019-02-04T01:17:17.637Z,0.50
2019-02-04T01:18:21.255Z,0.40
2019-02-04T01:19:24.856Z,0.40
2019-02-04T01:20:30.366Z,0.40
2019-02-04T01:21:33.990Z,0.40
2019-02-04T01:22:37.927Z,0.40
2019-02-04T01:23:41.533Z,0.50
2019-02-04T01:24:47.955Z,0.50
2019-02-04T01:25:50.411Z,0.50
2019-02-04T01:26:54.064Z,0.50
2019-02-04T01:27:57.723Z,0.50
2019-02-04T01:29:01.377Z,0.40
2019-02-04T01:30:08.038Z,0.40
2019-02-04T01:31:11.637Z,0.40
2019-02-04T01:32:15.222Z,0.40
2019-02-04T01:33:18.866Z,0.40
2019-02-04T01:34:22.510Z,0.40
2019-02-04T01:35:26.189Z,0.40
2019-02-04T01:36:29.833Z,0.40
2019-02-04T01:37:33.422Z,0.50
2019-02-04T01:38:37.320Z,0.40
2019-02-04T01:39:40.968Z,0.40
2019-02-04T01:40:44.558Z,0.40
2019-02-04T01:41:48.153Z,0.40
2019-02-04T01:42:51.960Z,0.40
2019-02-04T01:43:55.570Z,0.30
2019-02-04T01:44:59.195Z,0.30
2019-02-04T01:46:02.816Z,0.30
2019-02-04T01:47:14.408Z,0.20
2019-02-04T01:48:11.680Z,0.20
2019-02-04T01:49:15.265Z,0.10
2019-02-04T01:50:21.186Z,0.10
2019-02-04T01:51:24.821Z,0.00
2019-02-04T01:52:28.430Z,0.00
2019-02-04T01:53:32.256Z,0.00
2019-02-04T01:54:35.971Z,-0.10
2019-02-04T01:55:39.570Z,-0.10
2019-02-04T01:56:43.193Z,-0.10
2019-02-04T01:57:49.450Z,-0.20
2019-02-04T01:58:53.138Z,-0.20
2019-02-04T01:59:56.786Z,-0.20
2019-02-04T02:01:00.414Z,-0.20
2019-02-04T02:02:04.181Z,-0.20
2019-02-04T02:03:07.862Z,-0.20
2019-02-04T02:04:11.562Z,-0.20
2019-02-04T02:05:15.680Z,-0.20
2019-02-04T02:06:19.267Z,-0.10
2019-02-04T02:07:22.935Z,-0.10
2019-02-04T02:08:26.722Z,0.00
2019-02-04T02:09:30.725Z,0.10
2019-02-04T02:10:34.411Z,0.10
2019-02-04T02:11:38.015Z,0.20
2019-02-04T02:12:41.653Z,0.30
2019-02-04T02:13:45.237Z,0.30
2019-02-04T02:14:49.076Z,0.40
2019-02-04T02:15:52.676Z,0.40
2019-02-04T02:16:56.255Z,0.50
2019-02-04T02:17:59.949Z,0.50
2019-02-04T02:19:03.553Z,0.50
2019-02-04T02:20:10.226Z,0.50
2019-02-04T02:21:13.925Z,0.50
2019-02-04T02:22:17.571Z,0.60
2019-02-04T02:23:21.220Z,0.70
2019-02-04T02:24:25.015Z,0.70
2019-02-04T02:25:29.062Z,0.70
2019-02-04T02:26:32.663Z,0.80
2019-02-04T02:27:36.311Z,0.80
2019-02-04T02:28:39.981Z,0.80
2019-02-04T02:29:43.590Z,0.80
2019-02-04T02:30:47.179Z,0.80
2019-02-04T02:31:50.806Z,0.70
2019-02-04T02:32:54.549Z,0.80
2019-02-04T02:33:58.233Z,0.80
2019-02-04T02:35:01.817Z,0.80
2019-02-04T02:36:05.521Z,0.80
2019-02-04T02:37:09.135Z,0.80
2019-02-04T02:38:12.787Z,0.80
2019-02-04T02:39:16.692Z,0.90
2019-02-04T02:40:25.998Z,0.90
2019-02-04T02:41:29.722Z,0.90
2019-02-04T02:42:33.482Z,0.90
2019-02-04T02:43:37.091Z,0.90
2019-02-04T02:44:40.716Z,1.00
2019-02-04T02:45:44.332Z,1.00
2019-02-04T02:46:47.946Z,1.00
2019-02-04T02:47:51.599Z,1.00
2019-02-04T02:48:55.240Z,1.00
2019-02-04T02:49:59.125Z,1.00
2019-02-04T02:51:02.732Z,1.10
2019-02-04T02:52:06.452Z,1.00
2019-02-04T02:53:10.035Z,1.00
2019-02-04T02:54:13.857Z,1.00
2019-02-04T02:55:18.611Z,1.00
2019-02-04T02:56:22.228Z,1.00
2019-02-04T02:57:25.830Z,1.10
2019-02-04T02:58:29.422Z,1.20
2019-02-04T02:59:33.071Z,1.20
2019-02-04T03:00:36.775Z,1.20
2019-02-04T03:01:40.415Z,1.20
2019-02-04T03:02:44.042Z,1.20
2019-02-04T03:03:47.642Z,1.20
2019-02-04T03:04:51.326Z,1.20
2019-02-04T03:05:54.915Z,1.20
2019-02-04T03:06:58.685Z,1.20
2019-02-04T03:08:02.250Z,1.20
2019-02-04T03:09:07.582Z,1.20
2019-02-04T03:10:20.697Z,1.20
2019-02-04T03:11:24.402Z,1.30
2019-02-04T03:12:28.107Z,1.30
2019-02-04T03:13:31.712Z,1.30
2019-02-04T03:14:35.309Z,1.20
2019-02-04T03:15:38.966Z,1.30
2019-02-04T03:16:42.581Z,1.30
2019-02-04T03:17:52.233Z,1.30
2019-02-04T03:18:51.595Z,1.30
2019-02-04T03:19:55.182Z,1.30
2019-02-04T03:20:58.781Z,1.30
2019-02-04T03:22:02.408Z,1.40
2019-02-04T03:23:06.021Z,1.40
2019-02-04T03:24:09.604Z,1.40
2019-02-04T03:25:14.441Z,1.30
2019-02-04T03:26:18.412Z,1.40
2019-02-04T03:27:22.347Z,1.40
2019-02-04T03:28:25.926Z,1.30
2019-02-04T03:29:29.566Z,1.30
2019-02-04T03:30:34.397Z,1.40
2019-02-04T03:31:39.691Z,1.40
2019-02-04T03:32:43.331Z,1.40
2019-02-04T03:33:46.919Z,1.40
2019-02-04T03:34:50.546Z,1.40
2019-02-04T03:35:54.149Z,1.40
2019-02-04T03:36:57.856Z,1.40
2019-02-04T03:38:01.457Z,1.50
2019-02-04T03:39:07.099Z,1.50
2019-02-04T03:40:14.138Z,1.50
2019-02-04T03:41:17.769Z,1.50
2019-02-04T03:42:21.962Z,1.50
2019-02-04T03:43:25.962Z,1.40
2019-02-04T03:44:29.637Z,1.40
2019-02-04T03:45:33.252Z,1.40
2019-02-04T03:46:36.873Z,1.40
2019-02-04T03:47:40.630Z,1.50
2019-02-04T03:48:44.242Z,1.50
2019-02-04T03:49:47.846Z,1.50
2019-02-04T03:50:51.519Z,1.40
2019-02-04T03:51:55.201Z,1.40
2019-02-04T03:52:58.884Z,1.40
2019-02-04T03:54:02.480Z,1.40
2019-02-04T03:55:08.600Z,1.40
2019-02-04T03:56:12.301Z,1.40
2019-02-04T03:57:15.987Z,1.50
2019-02-04T03:58:19.977Z,1.50
2019-02-04T03:59:23.790Z,1.50
2019-02-04T04:00:30.322Z,1.50
2019-02-04T04:01:34.021Z,1.50
2019-02-04T04:02:37.631Z,1.60
2019-02-04T04:03:41.251Z,1.50
2019-02-04T04:04:44.858Z,1.50
2019-02-04T04:05:48.684Z,1.50
2019-02-04T04:06:52.320Z,1.50
2019-02-04T04:07:56.057Z,1.50
2019-02-04T04:08:59.646Z,1.50
2019-02-04T04:10:03.492Z,1.60
2019-02-04T04:11:07.079Z,1.60
2019-02-04T04:12:10.673Z,1.50
2019-02-04T04:13:14.374Z,1.60
2019-02-04T04:14:18.360Z,1.50
2019-02-04T04:15:22.169Z,1.50
2019-02-04T04:16:25.799Z,1.50
2019-02-04T04:17:29.421Z,1.60
2019-02-04T04:18:33.041Z,1.60
2019-02-04T04:19:36.646Z,1.60
2019-02-04T04:20:40.254Z,1.60
2019-02-04T04:21:43.899Z,1.60
2019-02-04T04:22:47.568Z,1.60
2019-02-04T04:23:51.179Z,1.60
2019-02-04T04:24:54.974Z,1.60
2019-02-04T04:25:58.594Z,1.60
2019-02-04T04:27:02.183Z,1.60
2019-02-04T04:28:06.123Z,1.60
2019-02-04T04:29:09.742Z,1.70
2019-02-04T04:30:18.888Z,1.60
2019-02-04T04:31:22.467Z,1.60
2019-02-04T04:32:26.048Z,1.60
2019-02-04T04:33:29.673Z,1.60
2019-02-04T04:34:33.257Z,1.60
2019-02-04T04:35:36.931Z,1.60
2019-02-04T04:36:40.509Z,1.60
2019-02-04T04:37:44.133Z,1.60
2019-02-04T04:38:47.704Z,1.60
2019-02-04T04:39:51.367Z,1.50
2019-02-04T04:40:54.946Z,1.50
2019-02-04T04:41:58.570Z,1.50
2019-02-04T04:43:02.426Z,1.50
2019-02-04T04:44:06.315Z,1.50
2019-02-04T04:45:21.687Z,1.50
2019-02-04T04:46:25.668Z,1.50
2019-02-04T04:47:29.452Z,1.40
2019-02-04T04:48:33.110Z,1.40
2019-02-04T04:49:36.710Z,1.40
2019-02-04T04:50:40.361Z,1.40
2019-02-04T04:51:44.019Z,1.40
2019-02-04T04:52:47.610Z,1.50
2019-02-04T04:53:51.289Z,1.50
2019-02-04T04:54:54.891Z,1.40
2019-02-04T04:55:58.504Z,1.50
2019-02-04T04:57:02.133Z,1.50
2019-02-04T04:58:05.847Z,1.50
2019-02-04T04:59:09.476Z,1.50
2019-02-04T05:00:19.218Z,1.40
2019-02-04T05:01:22.875Z,1.50
2019-02-04T05:02:26.753Z,1.50
2019-02-04T05:03:30.353Z,1.50
2019-02-04T05:04:33.960Z,1.50
2019-02-04T05:05:37.574Z,1.50
2019-02-04T05:06:41.171Z,1.60
2019-02-04T05:07:44.946Z,1.60
2019-02-04T05:08:48.575Z,1.60
2019-02-04T05:09:52.186Z,1.60
2019-02-04T05:10:55.883Z,1.70
2019-02-04T05:11:59.502Z,1.70
2019-02-04T05:13:03.121Z,1.70
2019-02-04T05:14:06.744Z,1.70
2019-02-04T05:15:16.150Z,1.60
2019-02-04T05:16:19.737Z,1.60
2019-02-04T05:17:23.566Z,1.60
2019-02-04T05:18:37.431Z,1.60
2019-02-04T05:19:32.764Z,1.60
2019-02-04T05:20:36.413Z,1.60
2019-02-04T05:21:40.004Z,1.60
2019-02-04T05:22:43.735Z,1.60
2019-02-04T05:23:47.355Z,1.60
2019-02-04T05:24:50.996Z,1.60
2019-02-04T05:25:54.571Z,1.60
2019-02-04T05:26:58.209Z,1.60
2019-02-04T05:28:01.842Z,1.60
2019-02-04T05:29:05.442Z,1.60
2019-02-04T05:30:12.185Z,1.60
2019-02-04T05:31:15.821Z,1.60
2019-02-04T05:32:19.427Z,1.60
2019-02-04T05:33:23.395Z,1.60
2019-02-04T05:34:27.294Z,1.60
2019-02-04T05:35:30.974Z,1.60
2019-02-04T05:36:34.644Z,1.60
2019-02-04T05:37:38.367Z,1.60
2019-02-04T05:38:42.088Z,1.70
2019-02-04T05:39:45.701Z,1.70
2019-02-04T05:40:49.324Z,1.70
2019-02-04T05:41:53.099Z,1.70
2019-02-04T05:42:56.701Z,1.70
2019-02-04T05:44:00.343Z,1.70
2019-02-04T05:45:05.002Z,1.70
2019-02-04T05:46:08.851Z,1.70
2019-02-04T05:47:12.561Z,1.70
2019-02-04T05:48:16.545Z,1.70
2019-02-04T05:49:20.198Z,1.70
2019-02-04T05:50:23.869Z,1.70
2019-02-04T05:51:27.576Z,1.70
2019-02-04T05:52:31.263Z,1.70
2019-02-04T05:53:34.868Z,1.80
2019-02-04T05:54:38.559Z,1.80
2019-02-04T05:55:42.179Z,1.70
2019-02-04T05:56:45.801Z,1.80
2019-02-04T05:57:49.446Z,1.80
2019-02-04T05:58:53.116Z,1.80
2019-02-04T05:59:56.730Z,1.80
2019-02-04T06:01:00.419Z,1.80
2019-02-04T06:02:04.034Z,1.80
2019-02-04T06:03:08.030Z,1.80
2019-02-04T06:04:12.766Z,1.80
2019-02-04T06:05:16.567Z,1.80
2019-02-04T06:06:20.189Z,1.80
2019-02-04T06:07:23.826Z,1.80
2019-02-04T06:08:27.449Z,1.80
2019-02-04T06:09:31.053Z,1.80
2019-02-04T06:10:34.640Z,1.90
2019-02-04T06:11:38.342Z,1.80
2019-02-04T06:12:41.949Z,1.80
2019-02-04T06:13:45.608Z,1.80
2019-02-04T06:14:49.247Z,1.80
2019-02-04T06:15:53.022Z,1.80
2019-02-04T06:16:56.791Z,1.80
2019-02-04T06:18:00.799Z,1.80
2019-02-04T06:19:04.766Z,1.80
2019-02-04T06:20:20.189Z,1.70
2019-02-04T06:21:23.791Z,1.80
2019-02-04T06:22:27.394Z,1.80
2019-02-04T06:23:31.637Z,1.90
2019-02-04T06:24:35.210Z,1.90
2019-02-04T06:25:39.194Z,1.90
2019-02-04T06:26:42.956Z,1.80
2019-02-04T06:27:46.548Z,1.80
2019-02-04T06:28:50.155Z,1.80
2019-02-04T06:29:53.930Z,1.80
2019-02-04T06:30:57.576Z,1.80
2019-02-04T06:32:01.494Z,1.70
2019-02-04T06:33:05.525Z,1.70
2019-02-04T06:34:09.127Z,1.70
2019-02-04T06:35:15.194Z,1.70
2019-02-04T06:36:19.075Z,1.70
2019-02-04T06:37:22.658Z,1.70
2019-02-04T06:38:26.623Z,1.70
2019-02-04T06:39:30.205Z,1.70
2019-02-04T06:40:33.929Z,1.70
2019-02-04T06:41:37.528Z,1.70
2019-02-04T06:42:41.382Z,1.60
2019-02-04T06:43:45.040Z,1.60
2019-02-04T06:44:48.619Z,1.60
2019-02-04T06:45:52.227Z,1.60
2019-02-04T06:46:55.930Z,1.60
2019-02-04T06:47:59.671Z,1.60
2019-02-04T06:49:12.028Z,1.60
2019-02-04T06:50:11.489Z,1.60
2019-02-04T06:51:15.659Z,1.60
2019-02-04T06:52:19.239Z,1.60
2019-02-04T06:53:22.942Z,1.60
2019-02-04T06:54:26.559Z,1.60
2019-02-04T06:55:32.279Z,1.50
2019-02-04T06:56:36.198Z,1.50
2019-02-04T06:57:39.834Z,1.50
2019-02-04T06:58:43.467Z,1.50
2019-02-04T06:59:47.186Z,1.50
2019-02-04T07:00:50.867Z,1.50
2019-02-04T07:01:54.530Z,1.40
2019-02-04T07:02:58.332Z,1.40
2019-02-04T07:04:01.996Z,1.40
2019-02-04T07:05:07.799Z,1.40
2019-02-04T07:06:11.856Z,1.40
2019-02-04T07:07:15.594Z,1.30
2019-02-04T07:08:19.254Z,1.30
2019-02-04T07:09:22.976Z,1.30
2019-02-04T07:10:27.829Z,1.30
2019-02-04T07:11:31.567Z,1.30
2019-02-04T07:12:35.164Z,1.30
2019-02-04T07:13:42.115Z,1.30
2019-02-04T07:14:44.085Z,1.30
2019-02-04T07:15:47.793Z,1.30
2019-02-04T07:16:51.484Z,1.30
2019-02-04T07:17:55.076Z,1.30
2019-02-04T07:18:58.711Z,1.20
2019-02-04T07:20:02.342Z,1.20
2019-02-04T07:21:06.303Z,1.20
2019-02-04T07:22:09.915Z,1.20
2019-02-04T07:23:13.595Z,1.30
2019-02-04T07:24:17.192Z,1.30
2019-02-04T07:25:21.460Z,1.20
2019-02-04T07:26:25.136Z,1.20
2019-02-04T07:27:28.736Z,1.30
2019-02-04T07:28:32.359Z,1.20
2019-02-04T07:29:35.950Z,1.30
2019-02-04T07:30:39.578Z,1.30
2019-02-04T07:31:43.254Z,1.30
2019-02-04T07:32:46.996Z,1.30
2019-02-04T07:33:50.628Z,1.20
2019-02-04T07:34:54.437Z,1.20
2019-02-04T07:35:58.084Z,1.30
2019-02-04T07:37:01.774Z,1.20
2019-02-04T07:38:05.521Z,1.20
2019-02-04T07:39:09.215Z,1.20
2019-02-04T07:40:15.779Z,1.30
2019-02-04T07:41:19.429Z,1.30
2019-02-04T07:42:23.031Z,1.30
2019-02-04T07:43:26.734Z,1.30
2019-02-04T07:44:30.328Z,1.30
2019-02-04T07:45:34.014Z,1.20
2019-02-04T07:46:37.734Z,1.20
2019-02-04T07:47:41.378Z,1.20
2019-02-04T07:48:45.295Z,1.20
2019-02-04T07:49:49.224Z,1.20
2019-02-04T07:50:52.962Z,1.30
2019-02-04T07:51:56.674Z,1.30
2019-02-04T07:53:00.404Z,1.30
2019-02-04T07:54:04.513Z,1.30
2019-02-04T07:55:10.043Z,1.30
2019-02-04T07:56:13.711Z,1.30
2019-02-04T07:57:17.354Z,1.30
2019-02-04T07:58:20.983Z,1.30
2019-02-04T07:59:24.614Z,1.30
2019-02-04T08:00:30.491Z,1.30
2019-02-04T08:01:34.119Z,1.30
2019-02-04T08:02:37.767Z,1.20
2019-02-04T08:03:41.386Z,1.20
2019-02-04T08:04:45.275Z,1.20
2019-02-04T08:05:48.942Z,1.20
2019-02-04T08:06:52.565Z,1.20
2019-02-04T08:07:56.295Z,1.20
2019-02-04T08:08:59.901Z,1.20
2019-02-04T08:10:03.936Z,1.20
2019-02-04T08:11:07.602Z,1.20
2019-02-04T08:12:11.285Z,1.20
2019-02-04T08:13:14.923Z,1.20
2019-02-04T08:14:18.514Z,1.20
2019-02-04T08:15:30.414Z,1.20
2019-02-04T08:16:34.156Z,1.20
2019-02-04T08:17:37.814Z,1.30
2019-02-04T08:18:41.481Z,1.30
2019-02-04T08:19:47.039Z,1.20
2019-02-04T08:20:50.386Z,1.30
2019-02-04T08:21:54.486Z,1.30
2019-02-04T08:22:58.114Z,1.40
2019-02-04T08:24:01.816Z,1.30
2019-02-04T08:25:08.473Z,1.30
2019-02-04T08:26:12.078Z,1.40
2019-02-04T08:27:15.722Z,1.30
2019-02-04T08:28:19.388Z,1.40
2019-02-04T08:29:23.027Z,1.40
2019-02-04T08:30:37.945Z,1.50
2019-02-04T08:31:40.415Z,1.50
2019-02-04T08:32:44.116Z,1.40
2019-02-04T08:33:47.725Z,1.50
2019-02-04T08:34:51.347Z,1.50
2019-02-04T08:35:55.079Z,1.50
2019-02-04T08:36:58.723Z,1.50
2019-02-04T08:38:02.806Z,1.50
2019-02-04T08:39:07.933Z,1.50
2019-02-04T08:40:14.381Z,1.50
2019-02-04T08:41:17.970Z,1.50
2019-02-04T08:42:21.741Z,1.60
2019-02-04T08:43:25.383Z,1.60
2019-02-04T08:44:28.984Z,1.60
2019-02-04T08:45:32.668Z,1.60
2019-02-04T08:46:36.378Z,1.60
2019-02-04T08:47:40.195Z,1.60
2019-02-04T08:48:43.846Z,1.60
2019-02-04T08:49:57.693Z,1.60
2019-02-04T08:50:52.875Z,1.70
2019-02-04T08:51:56.468Z,1.70
2019-02-04T08:53:00.496Z,1.70
2019-02-04T08:54:04.243Z,1.70
2019-02-04T08:55:09.995Z,1.70
2019-02-04T08:56:13.659Z,1.70
2019-02-04T08:57:17.385Z,1.80
2019-02-04T08:58:21.033Z,1.80
2019-02-04T08:59:24.672Z,1.70
2019-02-04T09:00:28.376Z,1.70
2019-02-04T09:01:32.144Z,1.80
2019-02-04T09:02:35.847Z,1.80
2019-02-04T09:03:39.487Z,1.70
2019-02-04T09:04:43.126Z,1.70
2019-02-04T09:05:46.714Z,1.70
2019-02-04T09:06:50.631Z,1.70
2019-02-04T09:07:54.286Z,1.70
2019-02-04T09:08:57.906Z,1.70
2019-02-04T09:10:01.538Z,1.70
2019-02-04T09:11:05.581Z,1.70
2019-02-04T09:12:09.881Z,1.80
2019-02-04T09:13:13.664Z,1.80
2019-02-04T09:14:17.483Z,1.90
2019-02-04T09:15:21.547Z,1.90
2019-02-04T09:16:25.510Z,1.90
2019-02-04T09:17:29.105Z,1.90
2019-02-04T09:18:44.176Z,1.90
2019-02-04T09:19:38.166Z,1.90
2019-02-04T09:20:42.031Z,1.90
2019-02-04T09:21:45.686Z,2.00
2019-02-04T09:22:49.199Z,1.90
2019-02-04T09:23:52.832Z,1.90
2019-02-04T09:24:56.538Z,1.90
2019-02-04T09:26:00.370Z,2.00
2019-02-04T09:27:04.738Z,2.00
2019-02-04T09:28:08.575Z,2.00
2019-02-04T09:29:12.223Z,2.10
2019-02-04T09:30:20.865Z,2.10
2019-02-04T09:31:24.616Z,2.20
2019-02-04T09:32:28.367Z,2.10
2019-02-04T09:33:31.940Z,2.20
2019-02-04T09:34:35.675Z,2.20
2019-02-04T09:35:39.622Z,2.20
2019-02-04T09:36:43.216Z,2.20
2019-02-04T09:37:46.948Z,2.20
2019-02-04T09:38:50.641Z,2.20
2019-02-04T09:39:54.403Z,2.30
2019-02-04T09:40:58.329Z,2.30
2019-02-04T09:42:01.922Z,2.20
2019-02-04T09:43:05.749Z,2.20
2019-02-04T09:44:09.352Z,2.30
2019-02-04T09:45:17.450Z,2.30
2019-02-04T09:46:21.109Z,2.40
2019-02-04T09:47:24.726Z,2.40
2019-02-04T09:48:28.458Z,2.50
2019-02-04T09:49:32.031Z,2.50
2019-02-04T09:50:39.301Z,2.60
2019-02-04T09:51:43.691Z,2.60
2019-02-04T09:52:47.352Z,2.60
2019-02-04T09:53:50.993Z,2.60
2019-02-04T09:54:54.642Z,2.60
2019-02-04T09:55:58.287Z,2.70
2019-02-04T09:57:04.037Z,2.70
2019-02-04T09:58:07.712Z,2.80
2019-02-04T09:59:11.362Z,2.90
2019-02-04T10:00:21.047Z,2.90
2019-02-04T10:01:24.649Z,2.90
2019-02-04T10:02:28.298Z,2.90
2019-02-04T10:03:33.519Z,2.90
2019-02-04T10:04:37.105Z,3.00
2019-02-04T10:05:40.813Z,3.00
2019-02-04T10:06:44.423Z,3.00
2019-02-04T10:07:48.412Z,3.00
2019-02-04T10:08:52.328Z,3.10
2019-02-04T10:09:58.837Z,3.20
2019-02-04T10:11:01.403Z,3.20
2019-02-04T10:12:05.167Z,3.30
2019-02-04T10:13:08.943Z,3.40
2019-02-04T10:14:12.604Z,3.60
2019-02-04T10:15:19.137Z,3.80
2019-02-04T10:16:22.732Z,4.30
2019-02-04T10:17:26.488Z,4.90
2019-02-04T10:18:30.163Z,5.40
2019-02-04T10:19:33.833Z,6.00
2019-02-04T10:20:37.640Z,6.40
2019-02-04T10:21:41.303Z,6.70
2019-02-04T10:22:45.410Z,7.10
2019-02-04T10:23:49.332Z,7.40
2019-02-04T10:24:52.978Z,7.50
2019-02-04T10:25:56.730Z,7.80
2019-02-04T10:27:00.509Z,7.90
2019-02-04T10:28:04.894Z,8.10
2019-02-04T10:29:08.600Z,8.10
2019-02-04T10:30:18.410Z,8.20
2019-02-04T10:31:22.030Z,8.10
2019-02-04T10:32:25.682Z,8.00
2019-02-04T10:33:29.364Z,8.10
2019-02-04T10:34:33.032Z,8.10
2019-02-04T10:35:36.692Z,8.20
2019-02-04T10:36:40.393Z,8.30
2019-02-04T10:37:44.488Z,8.20
2019-02-04T10:38:48.205Z,8.20
2019-02-04T10:39:52.090Z,8.10
2019-02-04T10:40:56.018Z,7.90
2019-02-04T10:41:59.697Z,7.90
2019-02-04T10:43:03.379Z,7.90
2019-02-04T10:44:07.294Z,7.80
2019-02-04T10:45:13.582Z,7.80
2019-02-04T10:46:17.241Z,7.80
2019-02-04T10:47:20.964Z,7.90
2019-02-04T10:48:24.627Z,8.00
2019-02-04T10:49:28.315Z,8.00
2019-02-04T10:50:45.175Z,8.10
2019-02-04T10:51:39.871Z,8.10
2019-02-04T10:52:43.530Z,8.00
2019-02-04T10:53:47.153Z,7.70
2019-02-04T10:54:50.816Z,7.40
2019-02-04T10:55:54.737Z,7.10
2019-02-04T10:56:58.342Z,7.10
2019-02-04T10:58:02.009Z,7.10
2019-02-04T10:59:05.696Z,7.20
2019-02-04T11:00:25.438Z,7.30
2019-02-04T11:01:29.149Z,7.30
2019-02-04T11:02:32.753Z,7.20
2019-02-04T11:03:36.403Z,7.40
2019-02-04T11:04:39.992Z,7.40
2019-02-04T11:05:44.244Z,7.40
2019-02-04T11:06:47.914Z,7.40
2019-02-04T11:07:51.696Z,7.50
2019-02-04T11:08:55.403Z,7.60
2019-02-04T11:09:59.056Z,7.50
2019-02-04T11:11:02.723Z,7.40
2019-02-04T11:12:06.521Z,7.40
2019-02-04T11:13:12.751Z,7.40
2019-02-04T11:14:16.875Z,7.30
2019-02-04T11:15:20.616Z,7.30
2019-02-04T11:16:24.291Z,7.20
2019-02-04T11:17:28.062Z,7.10
2019-02-04T11:18:31.696Z,7.00
2019-02-04T11:19:35.327Z,7.00
2019-02-04T11:20:38.982Z,7.00
2019-02-04T11:21:42.681Z,6.80
2019-02-04T11:22:46.740Z,6.60
2019-02-04T11:23:50.342Z,6.60
2019-02-04T11:24:53.907Z,6.70
2019-02-04T11:25:57.528Z,6.70
2019-02-04T11:27:01.231Z,6.60
2019-02-04T11:28:06.596Z,6.60
2019-02-04T11:29:10.526Z,6.60
2019-02-04T11:30:31.782Z,6.60
2019-02-04T11:31:36.710Z,6.50
2019-02-04T11:32:40.354Z,6.40
2019-02-04T11:33:44.243Z,6.40
2019-02-04T11:34:49.165Z,6.50
2019-02-04T11:35:53.048Z,6.50
2019-02-04T11:36:56.629Z,6.50
2019-02-04T11:38:00.443Z,6.40
2019-02-04T11:39:07.308Z,6.30
2019-02-04T11:40:13.981Z,6.20
2019-02-04T11:41:17.575Z,6.20
2019-02-04T11:42:21.158Z,6.20
2019-02-04T11:43:24.821Z,6.20
2019-02-04T11:44:28.551Z,6.20
2019-02-04T11:45:32.350Z,6.20
2019-02-04T11:46:36.060Z,6.20
2019-02-04T11:47:39.634Z,6.30
2019-02-04T11:48:43.654Z,6.30
2019-02-04T11:49:47.571Z,6.40
2019-02-04T11:50:51.456Z,6.40
2019-02-04T11:51:55.059Z,6.40
2019-02-04T11:52:58.766Z,6.40
2019-02-04T11:54:02.343Z,6.40
2019-02-04T11:55:11.688Z,6.30
2019-02-04T11:56:15.334Z,6.20
2019-02-04T11:57:18.916Z,6.20
2019-02-04T11:58:22.563Z,6.10
2019-02-04T11:59:26.192Z,6.10
2019-02-04T12:00:33.461Z,6.10
2019-02-04T12:01:37.123Z,6.00
2019-02-04T12:02:40.719Z,5.90
2019-02-04T12:03:44.365Z,5.90
2019-02-04T12:04:48.032Z,6.00
2019-02-04T12:05:52.096Z,5.90
2019-02-04T12:06:55.694Z,5.90
2019-02-04T12:07:59.407Z,5.90
2019-02-04T12:09:04.807Z,5.90
2019-02-04T12:10:11.537Z,5.90
2019-02-04T12:11:15.185Z,6.00
2019-02-04T12:12:18.765Z,6.00
2019-02-04T12:13:22.416Z,6.00
2019-02-04T12:14:26.017Z,5.90
2019-02-04T12:15:29.817Z,6.00
2019-02-04T12:16:33.400Z,6.00
2019-02-04T12:17:36.992Z,6.00
2019-02-04T12:18:40.597Z,6.00
2019-02-04T12:19:44.242Z,5.90
2019-02-04T12:20:48.189Z,5.90
2019-02-04T12:21:51.767Z,5.80
2019-02-04T12:22:55.504Z,5.90
2019-02-04T12:23:59.086Z,5.80
2019-02-04T12:25:02.658Z,5.90
2019-02-04T12:26:06.423Z,5.80
2019-02-04T12:27:10.121Z,5.80
2019-02-04T12:28:13.700Z,5.90
2019-02-04T12:29:17.296Z,5.90
2019-02-04T12:30:35.464Z,5.90
2019-02-04T12:31:39.214Z,6.00
2019-02-04T12:32:42.842Z,6.10
2019-02-04T12:33:46.413Z,6.10
2019-02-04T12:34:50.002Z,6.20
2019-02-04T12:35:53.605Z,6.20
2019-02-04T12:36:57.335Z,6.20
2019-02-04T12:38:01.243Z,6.20
2019-02-04T12:39:08.988Z,6.20
2019-02-04T12:40:14.957Z,6.30
2019-02-04T12:41:18.605Z,6.30
2019-02-04T12:42:22.238Z,6.30
2019-02-04T12:43:25.835Z,6.30
2019-02-04T12:44:29.510Z,6.20
2019-02-04T12:45:35.433Z,6.20
2019-02-04T12:46:39.013Z,6.20
2019-02-04T12:47:42.727Z,6.10
2019-02-04T12:48:46.341Z,6.10
2019-02-04T12:49:49.935Z,6.10
2019-02-04T12:50:53.620Z,6.00
2019-02-04T12:51:57.462Z,5.90
2019-02-04T12:53:01.373Z,5.90
2019-02-04T12:54:05.746Z,5.90
2019-02-04T12:55:14.942Z,6.00
2019-02-04T12:56:18.992Z,6.00
2019-02-04T12:57:22.766Z,6.00
2019-02-04T12:58:26.353Z,6.10
2019-02-04T12:59:30.105Z,6.10
2019-02-04T13:00:34.065Z,6.10
2019-02-04T13:01:37.642Z,6.10
2019-02-04T13:02:41.329Z,6.10
2019-02-04T13:03:45.029Z,6.10
2019-02-04T13:04:48.654Z,6.10
2019-02-04T13:05:53.356Z,6.20
2019-02-04T13:06:57.030Z,6.10
2019-02-04T13:08:00.806Z,6.10
2019-02-04T13:09:07.164Z,6.00
2019-02-04T13:10:13.570Z,6.00
2019-02-04T13:11:17.426Z,6.00
2019-02-04T13:12:21.098Z,6.10
2019-02-04T13:13:24.770Z,6.10
2019-02-04T13:14:28.405Z,6.00
2019-02-04T13:15:32.074Z,6.10
2019-02-04T13:16:35.728Z,6.10
2019-02-04T13:17:39.383Z,6.10
2019-02-04T13:18:43.271Z,6.10
2019-02-04T13:19:46.887Z,6.10
2019-02-04T13:20:50.562Z,6.00
2019-02-04T13:21:54.165Z,6.00
2019-02-04T13:22:57.919Z,6.00
2019-02-04T13:24:01.707Z,6.00
2019-02-04T13:25:08.639Z,6.00
2019-02-04T13:26:12.598Z,5.90
2019-02-04T13:27:16.430Z,5.90
2019-02-04T13:28:20.306Z,5.80
2019-02-04T13:29:23.940Z,5.80
2019-02-04T13:30:28.832Z,5.80
2019-02-04T13:31:32.507Z,5.80
2019-02-04T13:32:36.406Z,5.80
2019-02-04T13:33:39.989Z,5.80
2019-02-04T13:34:43.674Z,5.80
2019-02-04T13:35:47.672Z,5.80
2019-02-04T13:36:51.395Z,5.80
2019-02-04T13:37:55.072Z,5.80
2019-02-04T13:38:58.674Z,5.90
2019-02-04T13:40:02.318Z,5.80
2019-02-04T13:41:10.141Z,5.90
2019-02-04T13:42:11.788Z,5.90
2019-02-04T13:43:15.591Z,5.80
2019-02-04T13:44:19.391Z,5.80
2019-02-04T13:45:23.381Z,5.80
2019-02-04T13:46:26.981Z,5.80
2019-02-04T13:47:30.573Z,5.80
2019-02-04T13:48:34.231Z,5.80
2019-02-04T13:49:37.968Z,5.80
2019-02-04T13:50:41.651Z,5.80
2019-02-04T13:51:56.881Z,5.80
2019-02-04T13:52:51.525Z,5.80
2019-02-04T13:53:57.103Z,5.80
2019-02-04T13:55:00.420Z,5.80
2019-02-04T13:56:04.503Z,5.80
2019-02-04T13:57:08.805Z,5.80
2019-02-04T13:58:12.833Z,5.80
2019-02-04T13:59:16.454Z,5.70
2019-02-04T14:00:20.353Z,5.80
2019-02-04T14:01:23.985Z,5.80
2019-02-04T14:02:27.818Z,5.80
2019-02-04T14:03:31.493Z,5.80
2019-02-04T14:04:35.345Z,5.80
2019-02-04T14:05:39.089Z,5.70
2019-02-04T14:06:42.742Z,5.60
2019-02-04T14:07:46.567Z,5.60
2019-02-04T14:08:50.163Z,5.60
2019-02-04T14:09:53.952Z,5.50
2019-02-04T14:10:57.587Z,5.60
2019-02-04T14:12:01.208Z,5.60
2019-02-04T14:13:06.216Z,5.50